sensor_id;sensor_type;location;lat;lon;timestamp;pressure;altitude;pressure_sealevel;temperature;humidity
38225;BME280;24025;48.138;11.428;2022-11-09T00:02:01;95323.03;;;7.44;72.59
38225;BME280;24025;48.138;11.428;2022-11-09T00:04:31;95317.63;;;7.41;72.07
38225;BME280;24025;48.138;11.428;2022-11-09T00:07:02;95320.63;;;7.39;72.35
38225;BME280;24025;48.138;11.428;2022-11-09T00:09:32;95313.09;;;7.41;72.23
38225;BME280;24025;48.138;11.428;2022-11-09T00:12:03;95315.75;;;7.41;72.51
38225;BME280;24025;48.138;11.428;2022-11-09T00:14:34;95316.81;;;7.36;72.23
38225;BME280;24025;48.138;11.428;2022-11-09T00:17:06;95318.34;;;7.37;72.74
38225;BME280;24025;48.138;11.428;2022-11-09T00:19:36;95315.28;;;7.35;72.76
38225;BME280;24025;48.138;11.428;2022-11-09T00:22:06;95308.44;;;7.34;72.26
38225;BME280;24025;48.138;11.428;2022-11-09T00:24:37;95313.22;;;7.29;72.92
38225;BME280;24025;48.138;11.428;2022-11-09T00:27:07;95303.75;;;7.28;72.52
38225;BME280;24025;48.138;11.428;2022-11-09T00:29:38;95312.47;;;7.28;72.63
38225;BME280;24025;48.138;11.428;2022-11-09T00:32:08;95312.28;;;7.21;72.80
38225;BME280;24025;48.138;11.428;2022-11-09T00:34:38;95312.56;;;7.16;72.28
38225;BME280;24025;48.138;11.428;2022-11-09T00:37:09;95311.38;;;7.14;71.85
38225;BME280;24025;48.138;11.428;2022-11-09T00:39:39;95308.03;;;7.17;71.88
38225;BME280;24025;48.138;11.428;2022-11-09T00:42:09;95303.84;;;7.16;71.82
38225;BME280;24025;48.138;11.428;2022-11-09T00:44:40;95307.88;;;7.09;72.33
38225;BME280;24025;48.138;11.428;2022-11-09T00:47:10;95303.25;;;7.06;72.10
38225;BME280;24025;48.138;11.428;2022-11-09T00:49:40;95303.34;;;7.10;72.08
38225;BME280;24025;48.138;11.428;2022-11-09T00:52:11;95305.56;;;7.08;72.22
38225;BME280;24025;48.138;11.428;2022-11-09T00:54:41;95307.13;;;7.09;72.33
38225;BME280;24025;48.138;11.428;2022-11-09T00:57:12;95308.66;;;7.10;72.05
38225;BME280;24025;48.138;11.428;2022-11-09T00:59:43;95308.28;;;7.12;72.10
38225;BME280;24025;48.138;11.428;2022-11-09T01:02:13;95307.78;;;7.06;71.61
38225;BME280;24025;48.138;11.428;2022-11-09T01:04:44;95312.66;;;7.04;72.48
38225;BME280;24025;48.138;11.428;2022-11-09T01:07:14;95310.72;;;7.01;72.48
38225;BME280;24025;48.138;11.428;2022-11-09T01:09:44;95303.19;;;7.03;72.33
38225;BME280;24025;48.138;11.428;2022-11-09T01:12:15;95302.06;;;7.04;72.33
38225;BME280;24025;48.138;11.428;2022-11-09T01:14:45;95306.44;;;6.96;72.44
38225;BME280;24025;48.138;11.428;2022-11-09T01:17:16;95305.41;;;6.85;72.06
38225;BME280;24025;48.138;11.428;2022-11-09T01:19:46;95298.66;;;6.88;72.72
38225;BME280;24025;48.138;11.428;2022-11-09T01:22:17;95296.44;;;6.90;72.43
38225;BME280;24025;48.138;11.428;2022-11-09T01:24:48;95293.81;;;6.90;72.79
38225;BME280;24025;48.138;11.428;2022-11-09T01:27:19;95293.81;;;6.90;72.68
38225;BME280;24025;48.138;11.428;2022-11-09T01:29:49;95287.38;;;6.91;73.24
38225;BME280;24025;48.138;11.428;2022-11-09T01:32:19;95299.00;;;6.86;72.54
38225;BME280;24025;48.138;11.428;2022-11-09T01:34:50;95299.28;;;6.81;72.55
38225;BME280;24025;48.138;11.428;2022-11-09T01:37:20;95299.28;;;6.81;73.38
38225;BME280;24025;48.138;11.428;2022-11-09T01:39:50;95296.94;;;6.79;73.15
38225;BME280;24025;48.138;11.428;2022-11-09T01:42:24;95287.41;;;6.75;73.14
38225;BME280;24025;48.138;11.428;2022-11-09T01:48:11;95295.16;;;6.68;73.07
38225;BME280;24025;48.138;11.428;2022-11-09T01:51:06;95298.34;;;6.58;72.04
38225;BME280;24025;48.138;11.428;2022-11-09T01:53:36;95285.84;;;6.58;72.48
38225;BME280;24025;48.138;11.428;2022-11-09T01:56:12;95300.63;;;6.59;72.67
38225;BME280;24025;48.138;11.428;2022-11-09T01:58:47;95292.69;;;6.59;72.97
38225;BME280;24025;48.138;11.428;2022-11-09T02:01:20;95293.28;;;6.52;73.04
38225;BME280;24025;48.138;11.428;2022-11-09T02:03:55;95297.91;;;6.56;73.29
38225;BME280;24025;48.138;11.428;2022-11-09T02:06:27;95296.19;;;6.47;71.75
38225;BME280;24025;48.138;11.428;2022-11-09T02:09:01;95282.53;;;6.45;72.43
38225;BME280;24025;48.138;11.428;2022-11-09T02:11:35;95282.94;;;6.47;73.04
38225;BME280;24025;48.138;11.428;2022-11-09T02:14:07;95296.72;;;6.37;71.70
38225;BME280;24025;48.138;11.428;2022-11-09T02:16:38;95292.25;;;6.41;71.97
38225;BME280;24025;48.138;11.428;2022-11-09T02:19:09;95286.72;;;6.46;72.84
38225;BME280;24025;48.138;11.428;2022-11-09T02:21:40;95283.78;;;6.51;72.71
38225;BME280;24025;48.138;11.428;2022-11-09T02:24:11;95290.72;;;6.56;72.66
38225;BME280;24025;48.138;11.428;2022-11-09T02:26:46;95290.63;;;6.52;72.57
38225;BME280;24025;48.138;11.428;2022-11-09T02:29:30;95289.03;;;6.48;71.90
38225;BME280;24025;48.138;11.428;2022-11-09T02:32:07;95285.59;;;6.47;72.28
38225;BME280;24025;48.138;11.428;2022-11-09T02:34:39;95283.78;;;6.51;72.44
38225;BME280;24025;48.138;11.428;2022-11-09T02:37:09;95286.03;;;6.49;72.02
38225;BME280;24025;48.138;11.428;2022-11-09T02:39:39;95283.31;;;6.46;72.21
38225;BME280;24025;48.138;11.428;2022-11-09T02:42:12;95280.19;;;6.44;72.33
38225;BME280;24025;48.138;11.428;2022-11-09T02:44:50;95284.72;;;6.43;72.16
38225;BME280;24025;48.138;11.428;2022-11-09T02:47:22;95282.19;;;6.47;72.37
38225;BME280;24025;48.138;11.428;2022-11-09T02:49:52;95280.31;;;6.47;72.49
38225;BME280;24025;48.138;11.428;2022-11-09T02:52:23;95288.59;;;6.46;72.57
38225;BME280;24025;48.138;11.428;2022-11-09T02:54:53;95281.84;;;6.48;72.82
38225;BME280;24025;48.138;11.428;2022-11-09T02:57:24;95286.38;;;6.48;72.93
38225;BME280;24025;48.138;11.428;2022-11-09T02:59:54;95280.31;;;6.47;72.98
38225;BME280;24025;48.138;11.428;2022-11-09T03:02:24;95289.25;;;6.43;72.82
38225;BME280;24025;48.138;11.428;2022-11-09T03:04:55;95281.06;;;6.48;72.76
38225;BME280;24025;48.138;11.428;2022-11-09T03:07:25;95274.13;;;6.43;72.76
38225;BME280;24025;48.138;11.428;2022-11-09T03:09:56;95275.25;;;6.42;72.80
38225;BME280;24025;48.138;11.428;2022-11-09T03:12:26;95269.28;;;6.45;73.25
38225;BME280;24025;48.138;11.428;2022-11-09T03:15:01;95282.09;;;6.43;73.26
38225;BME280;24025;48.138;11.428;2022-11-09T03:17:33;95287.88;;;6.33;72.43
38225;BME280;24025;48.138;11.428;2022-11-09T03:20:04;95274.41;;;6.38;73.09
38225;BME280;24025;48.138;11.428;2022-11-09T03:22:35;95286.19;;;6.41;73.16
38225;BME280;24025;48.138;11.428;2022-11-09T03:25:06;95282.78;;;6.40;73.20
38225;BME280;24025;48.138;11.428;2022-11-09T03:27:36;95290.72;;;6.40;73.26
38225;BME280;24025;48.138;11.428;2022-11-09T03:30:07;95283.47;;;6.37;73.45
38225;BME280;24025;48.138;11.428;2022-11-09T03:32:37;95280.06;;;6.37;73.30
38225;BME280;24025;48.138;11.428;2022-11-09T03:35:08;95285.66;;;6.35;73.07
38225;BME280;24025;48.138;11.428;2022-11-09T03:37:38;95279.69;;;6.38;73.02
38225;BME280;24025;48.138;11.428;2022-11-09T03:40:09;95285.00;;;6.38;73.27
38225;BME280;24025;48.138;11.428;2022-11-09T03:42:44;95284.66;;;6.40;73.56
38225;BME280;24025;48.138;11.428;2022-11-09T03:45:15;95277.81;;;6.39;73.46
38225;BME280;24025;48.138;11.428;2022-11-09T03:47:46;95274.47;;;6.42;73.52
38225;BME280;24025;48.138;11.428;2022-11-09T03:50:17;95275.66;;;6.44;73.64
38225;BME280;24025;48.138;11.428;2022-11-09T03:52:47;95275.66;;;6.44;73.39
38225;BME280;24025;48.138;11.428;2022-11-09T03:55:18;95278.31;;;6.44;73.40
38225;BME280;24025;48.138;11.428;2022-11-09T03:57:49;95273.19;;;6.51;73.03
38225;BME280;24025;48.138;11.428;2022-11-09T04:00:21;95270.56;;;6.51;73.25
38225;BME280;24025;48.138;11.428;2022-11-09T04:02:51;95267.84;;;6.48;73.75
38225;BME280;24025;48.138;11.428;2022-11-09T04:05:22;95272.09;;;6.52;73.37
38225;BME280;24025;48.138;11.428;2022-11-09T04:07:54;95270.97;;;6.53;72.71
38225;BME280;24025;48.138;11.428;2022-11-09T04:10:25;95263.81;;;6.54;72.65
38225;BME280;24025;48.138;11.428;2022-11-09T04:12:56;95267.66;;;6.57;72.75
38225;BME280;24025;48.138;11.428;2022-11-09T04:15:26;95260.13;;;6.59;72.82
38225;BME280;24025;48.138;11.428;2022-11-09T04:17:58;95260.91;;;6.59;72.51
38225;BME280;24025;48.138;11.428;2022-11-09T04:20:30;95270.81;;;6.62;72.82
38225;BME280;24025;48.138;11.428;2022-11-09T04:23:02;95264.41;;;6.63;72.69
38225;BME280;24025;48.138;11.428;2022-11-09T04:25:34;95264.50;;;6.67;72.54
38225;BME280;24025;48.138;11.428;2022-11-09T04:28:06;95264.13;;;6.68;72.32
38225;BME280;24025;48.138;11.428;2022-11-09T04:30:37;95263.03;;;6.69;72.50
38225;BME280;24025;48.138;11.428;2022-11-09T04:33:08;95270.56;;;6.67;71.75
38225;BME280;24025;48.138;11.428;2022-11-09T04:35:39;95277.03;;;6.70;71.59
38225;BME280;24025;48.138;11.428;2022-11-09T04:38:11;95266.88;;;6.72;71.14
38225;BME280;24025;48.138;11.428;2022-11-09T04:40:42;95266.25;;;6.78;68.34
38225;BME280;24025;48.138;11.428;2022-11-09T04:43:13;95264.13;;;6.84;70.36
38225;BME280;24025;48.138;11.428;2022-11-09T04:45:45;95260.03;;;6.87;69.73
38225;BME280;24025;48.138;11.428;2022-11-09T04:48:16;95264.72;;;6.93;67.66
38225;BME280;24025;48.138;11.428;2022-11-09T04:50:46;95270.09;;;6.97;68.05
38225;BME280;24025;48.138;11.428;2022-11-09T04:53:17;95268.72;;;7.03;67.53
38225;BME280;24025;48.138;11.428;2022-11-09T04:55:47;95277.19;;;7.08;67.76
38225;BME280;24025;48.138;11.428;2022-11-09T04:58:17;95270.06;;;7.13;67.89
38225;BME280;24025;48.138;11.428;2022-11-09T05:00:48;95266.75;;;7.16;66.70
38225;BME280;24025;48.138;11.428;2022-11-09T05:03:19;95267.63;;;7.23;65.65
38225;BME280;24025;48.138;11.428;2022-11-09T05:05:49;95266.59;;;7.28;65.83
38225;BME280;24025;48.138;11.428;2022-11-09T05:08:19;95269.78;;;7.33;66.15
38225;BME280;24025;48.138;11.428;2022-11-09T05:10:50;95269.06;;;7.36;66.07
38225;BME280;24025;48.138;11.428;2022-11-09T05:13:20;95264.59;;;7.41;65.95
38225;BME280;24025;48.138;11.428;2022-11-09T05:15:51;95264.59;;;7.41;65.53
38225;BME280;24025;48.138;11.428;2022-11-09T05:18:21;95269.97;;;7.44;66.07
38225;BME280;24025;48.138;11.428;2022-11-09T05:20:51;95266.63;;;7.47;66.06
38225;BME280;24025;48.138;11.428;2022-11-09T05:23:22;95270.03;;;7.48;65.41
38225;BME280;24025;48.138;11.428;2022-11-09T05:26:11;95259.84;;;7.50;66.28
38225;BME280;24025;48.138;11.428;2022-11-09T05:28:41;95261.38;;;7.51;65.35
38225;BME280;24025;48.138;11.428;2022-11-09T05:31:11;95262.19;;;7.51;65.14
38225;BME280;24025;48.138;11.428;2022-11-09T05:33:42;95274.72;;;7.54;65.41
38225;BME280;24025;48.138;11.428;2022-11-09T05:36:12;95266.44;;;7.56;65.32
38225;BME280;24025;48.138;11.428;2022-11-09T05:38:43;95272.50;;;7.56;66.03
38225;BME280;24025;48.138;11.428;2022-11-09T05:41:14;95271.38;;;7.57;67.41
38225;BME280;24025;48.138;11.428;2022-11-09T05:43:45;95269.28;;;7.47;65.30
38225;BME280;24025;48.138;11.428;2022-11-09T05:46:16;95280.19;;;7.42;63.90
38225;BME280;24025;48.138;11.428;2022-11-09T05:48:47;95286.72;;;7.48;66.42
38225;BME280;24025;48.138;11.428;2022-11-09T05:51:17;95283.31;;;7.48;67.53
38225;BME280;24025;48.138;11.428;2022-11-09T05:53:48;95281.41;;;7.48;68.29
38225;BME280;24025;48.138;11.428;2022-11-09T05:56:18;95290.91;;;7.49;67.65
38225;BME280;24025;48.138;11.428;2022-11-09T05:58:48;95291.25;;;7.48;67.79
38225;BME280;24025;48.138;11.428;2022-11-09T06:01:19;95292.75;;;7.45;68.09
38225;BME280;24025;48.138;11.428;2022-11-09T06:03:52;95305.66;;;7.47;68.17
38225;BME280;24025;48.138;11.428;2022-11-09T06:06:23;95308.66;;;7.45;68.24
38225;BME280;24025;48.138;11.428;2022-11-09T06:08:53;95313.59;;;7.47;68.85
38225;BME280;24025;48.138;11.428;2022-11-09T06:11:23;95312.91;;;7.50;67.97
38225;BME280;24025;48.138;11.428;2022-11-09T06:13:54;95329.72;;;7.38;66.16
38225;BME280;24025;48.138;11.428;2022-11-09T06:16:24;95336.91;;;7.37;64.89
38225;BME280;24025;48.138;11.428;2022-11-09T06:18:55;95334.84;;;7.47;66.12
38225;BME280;24025;48.138;11.428;2022-11-09T06:21:25;95344.31;;;7.48;65.45
38225;BME280;24025;48.138;11.428;2022-11-09T06:23:56;95343.84;;;7.42;65.29
38225;BME280;24025;48.138;11.428;2022-11-09T06:26:26;95352.97;;;7.45;65.24
38225;BME280;24025;48.138;11.428;2022-11-09T06:28:56;95355.69;;;7.48;65.50
38225;BME280;24025;48.138;11.428;2022-11-09T06:31:27;95376.34;;;7.39;65.94
38225;BME280;24025;48.138;11.428;2022-11-09T06:33:57;95387.66;;;7.36;65.87
38225;BME280;24025;48.138;11.428;2022-11-09T06:36:28;95396.13;;;7.26;66.28
38225;BME280;24025;48.138;11.428;2022-11-09T06:38:58;95384.91;;;7.32;66.48
38225;BME280;24025;48.138;11.428;2022-11-09T06:41:28;95405.88;;;7.37;66.85
38225;BME280;24025;48.138;11.428;2022-11-09T06:43:59;95403.97;;;7.38;66.99
38225;BME280;24025;48.138;11.428;2022-11-09T06:46:31;95408.44;;;7.34;67.38
38225;BME280;24025;48.138;11.428;2022-11-09T06:49:01;95424.84;;;7.39;67.74
38225;BME280;24025;48.138;11.428;2022-11-09T06:51:32;95428.63;;;7.38;67.81
38225;BME280;24025;48.138;11.428;2022-11-09T06:54:02;95428.72;;;7.42;67.90
38225;BME280;24025;48.138;11.428;2022-11-09T06:56:32;95431.16;;;7.51;67.90
38225;BME280;24025;48.138;11.428;2022-11-09T06:59:03;95437.75;;;7.57;67.70
38225;BME280;24025;48.138;11.428;2022-11-09T07:01:34;95437.59;;;7.65;68.49
38225;BME280;24025;48.138;11.428;2022-11-09T07:04:06;95434.25;;;7.69;67.68
38225;BME280;24025;48.138;11.428;2022-11-09T07:06:39;95441.59;;;7.75;66.83
38225;BME280;24025;48.138;11.428;2022-11-09T07:09:10;95451.59;;;7.82;65.33
38225;BME280;24025;48.138;11.428;2022-11-09T07:11:41;95450.56;;;7.86;65.88
38225;BME280;24025;48.138;11.428;2022-11-09T07:14:12;95449.53;;;7.91;65.14
38225;BME280;24025;48.138;11.428;2022-11-09T07:16:42;95441.63;;;7.94;65.30
38225;BME280;24025;48.138;11.428;2022-11-09T07:19:12;95435.28;;;7.99;66.32
38225;BME280;24025;48.138;11.428;2022-11-09T07:21:43;95438.34;;;8.01;65.58
38225;BME280;24025;48.138;11.428;2022-11-09T07:24:13;95441.53;;;8.07;66.94
38225;BME280;24025;48.138;11.428;2022-11-09T07:26:43;95442.78;;;8.13;67.59
38225;BME280;24025;48.138;11.428;2022-11-09T07:29:14;95437.13;;;8.14;68.20
38225;BME280;24025;48.138;11.428;2022-11-09T07:31:45;95438.72;;;8.19;68.45
38225;BME280;24025;48.138;11.428;2022-11-09T07:34:15;95435.31;;;8.18;68.78
38225;BME280;24025;48.138;11.428;2022-11-09T07:36:46;95443.38;;;8.22;69.56
38225;BME280;24025;48.138;11.428;2022-11-09T07:39:16;95436.94;;;8.23;69.14
38225;BME280;24025;48.138;11.428;2022-11-09T07:41:47;95432.44;;;8.27;69.54
38225;BME280;24025;48.138;11.428;2022-11-09T07:44:18;95428.31;;;8.30;69.01
38225;BME280;24025;48.138;11.428;2022-11-09T07:46:48;95430.28;;;8.33;69.33
38225;BME280;24025;48.138;11.428;2022-11-09T07:49:19;95433.81;;;8.37;69.15
38225;BME280;24025;48.138;11.428;2022-11-09T07:51:49;95432.00;;;8.41;69.62
38225;BME280;24025;48.138;11.428;2022-11-09T07:54:20;95439.31;;;8.47;69.09
38225;BME280;24025;48.138;11.428;2022-11-09T07:56:50;95442.06;;;8.51;68.93
38225;BME280;24025;48.138;11.428;2022-11-09T07:59:21;95439.00;;;8.49;69.72
38225;BME280;24025;48.138;11.428;2022-11-09T08:01:51;95438.34;;;8.56;70.11
38225;BME280;24025;48.138;11.428;2022-11-09T08:04:22;95436.22;;;8.65;69.98
38225;BME280;24025;48.138;11.428;2022-11-09T08:06:53;95440.50;;;8.69;70.58
38225;BME280;24025;48.138;11.428;2022-11-09T08:09:23;95445.59;;;8.78;71.45
38225;BME280;24025;48.138;11.428;2022-11-09T08:11:53;95451.41;;;8.84;70.76
38225;BME280;24025;48.138;11.428;2022-11-09T08:14:24;95440.88;;;8.91;71.77
38225;BME280;24025;48.138;11.428;2022-11-09T08:16:54;95439.13;;;8.98;70.55
38225;BME280;24025;48.138;11.428;2022-11-09T08:19:25;95441.16;;;9.05;71.50
38225;BME280;24025;48.138;11.428;2022-11-09T08:21:56;95447.41;;;9.16;71.08
38225;BME280;24025;48.138;11.428;2022-11-09T08:24:27;95444.91;;;9.27;69.40
38225;BME280;24025;48.138;11.428;2022-11-09T08:26:57;95448.53;;;9.38;69.77
38225;BME280;24025;48.138;11.428;2022-11-09T08:29:27;95453.31;;;9.52;68.69
38225;BME280;24025;48.138;11.428;2022-11-09T08:31:58;95451.25;;;9.64;67.77
38225;BME280;24025;48.138;11.428;2022-11-09T08:34:28;95452.63;;;9.81;65.50
38225;BME280;24025;48.138;11.428;2022-11-09T08:36:59;95463.09;;;9.97;64.57
38225;BME280;24025;48.138;11.428;2022-11-09T08:39:29;95459.84;;;10.07;60.76
38225;BME280;24025;48.138;11.428;2022-11-09T08:42:00;95466.16;;;10.22;59.14
38225;BME280;24025;48.138;11.428;2022-11-09T08:44:30;95458.72;;;10.35;59.92
38225;BME280;24025;48.138;11.428;2022-11-09T08:47:00;95454.28;;;10.46;59.56
38225;BME280;24025;48.138;11.428;2022-11-09T08:49:31;95465.81;;;10.57;59.50
38225;BME280;24025;48.138;11.428;2022-11-09T08:52:01;95475.06;;;10.67;59.47
38225;BME280;24025;48.138;11.428;2022-11-09T08:54:32;95475.16;;;10.74;59.48
38225;BME280;24025;48.138;11.428;2022-11-09T08:57:02;95476.00;;;10.78;59.04
38225;BME280;24025;48.138;11.428;2022-11-09T08:59:32;95479.81;;;10.81;58.37
38225;BME280;24025;48.138;11.428;2022-11-09T09:02:03;95473.81;;;10.87;59.27
38225;BME280;24025;48.138;11.428;2022-11-09T09:04:34;95475.75;;;10.94;60.53
38225;BME280;24025;48.138;11.428;2022-11-09T09:07:04;95465.94;;;11.01;61.24
38225;BME280;24025;48.138;11.428;2022-11-09T09:09:35;95465.25;;;11.12;60.04
38225;BME280;24025;48.138;11.428;2022-11-09T09:12:08;95476.41;;;11.21;62.92
38225;BME280;24025;48.138;11.428;2022-11-09T09:14:39;95464.72;;;11.32;59.93
38225;BME280;24025;48.138;11.428;2022-11-09T09:17:09;95470.53;;;11.45;59.30
38225;BME280;24025;48.138;11.428;2022-11-09T09:19:40;95483.63;;;11.57;58.18
38225;BME280;24025;48.138;11.428;2022-11-09T09:22:10;95480.66;;;11.70;58.07
38225;BME280;24025;48.138;11.428;2022-11-09T09:24:41;95486.88;;;11.81;59.33
38225;BME280;24025;48.138;11.428;2022-11-09T09:27:12;95468.59;;;11.86;58.33
38225;BME280;24025;48.138;11.428;2022-11-09T09:29:42;95471.72;;;11.96;57.59
38225;BME280;24025;48.138;11.428;2022-11-09T09:32:12;95476.34;;;12.06;59.72
38225;BME280;24025;48.138;11.428;2022-11-09T09:34:43;95475.66;;;12.12;59.84
38225;BME280;24025;48.138;11.428;2022-11-09T09:37:15;95471.88;;;12.21;59.97
38225;BME280;24025;48.138;11.428;2022-11-09T09:39:45;95465.38;;;12.25;58.90
38225;BME280;24025;48.138;11.428;2022-11-09T09:42:19;95470.41;;;12.30;59.75
38225;BME280;24025;48.138;11.428;2022-11-09T09:45:01;95476.13;;;12.32;57.27
38225;BME280;24025;48.138;11.428;2022-11-09T09:50:13;95476.50;;;12.34;57.72
38225;BME280;24025;48.138;11.428;2022-11-09T09:52:52;95475.41;;;12.39;58.73
38225;BME280;24025;48.138;11.428;2022-11-09T09:55:37;95476.59;;;12.48;58.14
38225;BME280;24025;48.138;11.428;2022-11-09T10:00:45;95473.28;;;12.73;58.77
38225;BME280;24025;48.138;11.428;2022-11-09T10:03:18;95470.63;;;12.84;58.09
38225;BME280;24025;48.138;11.428;2022-11-09T10:09:04;95474.47;;;12.97;57.04
38225;BME280;24025;48.138;11.428;2022-11-09T10:11:54;95478.31;;;12.99;56.22
38225;BME280;24025;48.138;11.428;2022-11-09T10:25:24;95465.41;;;13.30;56.18
38225;BME280;24025;48.138;11.428;2022-11-09T10:28:03;95468.84;;;13.41;54.69
38225;BME280;24025;48.138;11.428;2022-11-09T10:30:38;95461.22;;;13.47;54.24
38225;BME280;24025;48.138;11.428;2022-11-09T10:36:01;95456.59;;;13.83;55.49
38225;BME280;24025;48.138;11.428;2022-11-09T10:38:37;95447.00;;;14.03;54.66
38225;BME280;24025;48.138;11.428;2022-11-09T10:41:25;95450.75;;;14.31;54.24
38225;BME280;24025;48.138;11.428;2022-11-09T10:43:56;95448.44;;;14.58;53.45
38225;BME280;24025;48.138;11.428;2022-11-09T10:46:27;95439.09;;;14.87;52.54
38225;BME280;24025;48.138;11.428;2022-11-09T10:49:18;95434.19;;;15.38;51.86
38225;BME280;24025;48.138;11.428;2022-11-09T10:51:48;95435.00;;;15.79;50.18
38225;BME280;24025;48.138;11.428;2022-11-09T10:54:20;95415.44;;;16.17;48.55
38225;BME280;24025;48.138;11.428;2022-11-09T10:56:57;95418.63;;;16.76;46.86
38225;BME280;24025;48.138;11.428;2022-11-09T10:59:49;95417.91;;;17.53;45.51
38225;BME280;24025;48.138;11.428;2022-11-09T11:07:27;95426.19;;;18.52;43.71
38225;BME280;24025;48.138;11.428;2022-11-09T11:15:42;95399.78;;;19.16;42.55
38225;BME280;24025;48.138;11.428;2022-11-09T11:18:17;95392.31;;;19.72;42.04
38225;BME280;24025;48.138;11.428;2022-11-09T11:21:14;95399.75;;;19.36;41.50
38225;BME280;24025;48.138;11.428;2022-11-09T11:27:18;95399.44;;;19.14;42.25
38225;BME280;24025;48.138;11.428;2022-11-09T11:32:36;95394.34;;;18.83;43.65
38225;BME280;24025;48.138;11.428;2022-11-09T11:35:20;95395.06;;;18.67;43.60
38225;BME280;24025;48.138;11.428;2022-11-09T11:40:47;95393.41;;;18.10;45.95
38225;BME280;24025;48.138;11.428;2022-11-09T11:44:04;95394.81;;;18.58;45.57
38225;BME280;24025;48.138;11.428;2022-11-09T11:52:01;95393.72;;;18.76;44.61
38225;BME280;24025;48.138;11.428;2022-11-09T11:57:45;95390.31;;;18.52;45.28
38225;BME280;24025;48.138;11.428;2022-11-09T12:00:20;95385.41;;;19.03;44.28
38225;BME280;24025;48.138;11.428;2022-11-09T12:06:19;95382.16;;;18.75;44.87
38225;BME280;24025;48.138;11.428;2022-11-09T12:09:18;95389.31;;;18.65;45.06
38225;BME280;24025;48.138;11.428;2022-11-09T12:12:20;95376.63;;;19.15;44.22
38225;BME280;24025;48.138;11.428;2022-11-09T12:32:05;95359.03;;;20.46;41.65
38225;BME280;24025;48.138;11.428;2022-11-09T12:38:16;95366.38;;;21.13;40.67
38225;BME280;24025;48.138;11.428;2022-11-09T12:40:59;95356.81;;;20.83;40.49
38225;BME280;24025;48.138;11.428;2022-11-09T12:43:48;95354.84;;;20.71;40.82
38225;BME280;24025;48.138;11.428;2022-11-09T12:46:29;95350.88;;;19.59;42.45
38225;BME280;24025;48.138;11.428;2022-11-09T12:49:03;95359.31;;;19.12;43.89
38225;BME280;24025;48.138;11.428;2022-11-09T12:51:33;95354.97;;;18.62;45.24
38225;BME280;24025;48.138;11.428;2022-11-09T12:54:06;95355.16;;;17.76;47.02
38225;BME280;24025;48.138;11.428;2022-11-09T12:56:51;95354.66;;;17.81;46.99
38225;BME280;24025;48.138;11.428;2022-11-09T13:02:00;95360.50;;;17.06;49.49
38225;BME280;24025;48.138;11.428;2022-11-09T13:04:31;95346.16;;;16.85;49.99
38225;BME280;24025;48.138;11.428;2022-11-09T13:07:17;95340.88;;;16.78;50.90
38225;BME280;24025;48.138;11.428;2022-11-09T13:09:52;95343.00;;;16.60;50.73
38225;BME280;24025;48.138;11.428;2022-11-09T13:12:38;95342.97;;;16.33;51.50
38225;BME280;24025;48.138;11.428;2022-11-09T13:15:26;95349.38;;;16.46;51.40
38225;BME280;24025;48.138;11.428;2022-11-09T13:23:33;95330.47;;;16.50;51.61
38225;BME280;24025;48.138;11.428;2022-11-09T13:27:32;95331.97;;;16.54;51.05
38225;BME280;24025;48.138;11.428;2022-11-09T13:31:59;95331.38;;;16.66;51.51
38225;BME280;24025;48.138;11.428;2022-11-09T13:34:57;95336.28;;;16.79;52.93
38225;BME280;24025;48.138;11.428;2022-11-09T13:45:43;95346.00;;;16.69;51.05
38225;BME280;24025;48.138;11.428;2022-11-09T13:48:32;95346.44;;;16.64;51.34
38225;BME280;24025;48.138;11.428;2022-11-09T13:51:06;95336.84;;;16.63;51.52
38225;BME280;24025;48.138;11.428;2022-11-09T14:02:01;95337.78;;;16.49;53.43
38225;BME280;24025;48.138;11.428;2022-11-09T14:04:39;95344.38;;;16.45;52.79
38225;BME280;24025;48.138;11.428;2022-11-09T14:07:28;95346.31;;;16.44;55.36
38225;BME280;24025;48.138;11.428;2022-11-09T14:13:02;95346.84;;;16.32;53.22
38225;BME280;24025;48.138;11.428;2022-11-09T14:24:23;95351.75;;;16.06;54.84
38225;BME280;24025;48.138;11.428;2022-11-09T14:29:56;95351.91;;;15.92;53.54
38225;BME280;24025;48.138;11.428;2022-11-09T14:32:35;95355.78;;;15.91;54.95
38225;BME280;24025;48.138;11.428;2022-11-09T14:35:30;95355.03;;;15.87;57.99
38225;BME280;24025;48.138;11.428;2022-11-09T14:40:45;95358.53;;;15.84;58.15
38225;BME280;24025;48.138;11.428;2022-11-09T14:43:20;95366.25;;;15.82;56.95
38225;BME280;24025;48.138;11.428;2022-11-09T14:45:57;95363.16;;;15.80;59.84
38225;BME280;24025;48.138;11.428;2022-11-09T14:48:30;95370.59;;;15.69;61.23
38225;BME280;24025;48.138;11.428;2022-11-09T14:51:03;95366.81;;;15.59;61.82
38225;BME280;24025;48.138;11.428;2022-11-09T14:53:39;95360.00;;;15.47;62.77
38225;BME280;24025;48.138;11.428;2022-11-09T14:56:14;95360.91;;;15.30;64.01
38225;BME280;24025;48.138;11.428;2022-11-09T14:58:45;95356.00;;;15.18;64.10
38225;BME280;24025;48.138;11.428;2022-11-09T15:04:13;95362.34;;;14.90;64.43
38225;BME280;24025;48.138;11.428;2022-11-09T15:07:32;95365.06;;;14.83;65.58
38225;BME280;24025;48.138;11.428;2022-11-09T15:09:46;95367.03;;;14.75;65.55
38225;BME280;24025;48.138;11.428;2022-11-09T15:12:19;95370.16;;;14.66;66.69
38225;BME280;24025;48.138;11.428;2022-11-09T15:14:54;95370.59;;;14.54;67.03
38225;BME280;24025;48.138;11.428;2022-11-09T15:17:28;95374.88;;;14.41;67.85
38225;BME280;24025;48.138;11.428;2022-11-09T15:20:02;95378.75;;;14.26;68.08
38225;BME280;24025;48.138;11.428;2022-11-09T15:28:18;95375.81;;;13.88;68.61
38225;BME280;24025;48.138;11.428;2022-11-09T15:33:43;95382.72;;;13.68;70.35
38225;BME280;24025;48.138;11.428;2022-11-09T15:36:30;95383.53;;;13.61;70.73
38225;BME280;24025;48.138;11.428;2022-11-09T15:39:05;95388.88;;;13.57;70.52
38225;BME280;24025;48.138;11.428;2022-11-09T15:41:38;95384.28;;;13.54;70.18
38225;BME280;24025;48.138;11.428;2022-11-09T15:44:09;95383.13;;;13.48;70.47